createdAt,value
2022-09-24T00:01:29.473Z,99.30
2022-09-24T00:03:57.435Z,99.50
2022-09-24T00:06:24.269Z,99.50
2022-09-24T00:08:52.057Z,99.40
2022-09-24T00:11:21.529Z,99.40
2022-09-24T00:13:48.714Z,99.40
2022-09-24T00:16:16.546Z,99.50
2022-09-24T00:18:43.697Z,99.60
2022-09-24T00:21:13.611Z,99.60
2022-09-24T00:23:40.662Z,99.70
2022-09-24T00:26:25.936Z,99.80
2022-09-24T00:28:52.854Z,99.80
2022-09-24T00:31:19.679Z,99.90
2022-09-24T00:33:46.500Z,99.80
2022-09-24T00:36:14.913Z,99.80
2022-09-24T00:38:41.654Z,99.70
2022-09-24T00:41:08.450Z,99.70
2022-09-24T00:43:36.254Z,99.70
2022-09-24T00:46:15.223Z,99.70
2022-09-24T00:48:42.815Z,99.90
2022-09-24T00:51:13.810Z,99.90
2022-09-24T00:53:41.429Z,99.90
2022-09-24T00:56:10.844Z,99.90
2022-09-24T00:58:37.648Z,99.80
2022-09-24T01:01:05.844Z,99.80
2022-09-24T01:03:33.923Z,99.70
2022-09-24T01:06:01.085Z,99.90
2022-09-24T01:08:27.864Z,99.90
2022-09-24T01:10:54.542Z,99.90
2022-09-24T01:13:24.244Z,99.90
2022-09-24T01:15:55.795Z,99.90
2022-09-24T01:18:28.756Z,99.90
2022-09-24T01:20:55.486Z,99.90
2022-09-24T01:23:38.007Z,99.90
2022-09-24T01:26:32.282Z,99.90
2022-09-24T01:29:17.570Z,99.90
2022-09-24T01:31:48.122Z,99.90
2022-09-24T01:34:17.197Z,99.90
2022-09-24T01:36:45.168Z,99.90
2022-09-24T01:39:14.490Z,99.90
2022-09-24T01:41:43.120Z,99.90
2022-09-24T01:44:11.701Z,99.90
2022-09-24T01:46:39.426Z,99.90
2022-09-24T01:49:07.299Z,99.90
2022-09-24T01:51:55.840Z,99.90
2022-09-24T01:54:25.374Z,99.90
2022-09-24T01:56:55.747Z,99.90
2022-09-24T01:59:28.615Z,99.90
2022-09-24T02:01:57.534Z,99.90
2022-09-24T02:04:25.402Z,99.90
2022-09-24T02:07:00.412Z,99.90
2022-09-24T02:09:34.924Z,99.90
2022-09-24T02:12:12.323Z,99.90
2022-09-24T02:14:48.821Z,99.90
2022-09-24T02:17:16.373Z,99.90
2022-09-24T02:19:43.676Z,99.90
2022-09-24T02:22:12.652Z,99.90
2022-09-24T02:24:42.127Z,99.90
2022-09-24T02:27:09.045Z,99.90
2022-09-24T02:29:35.898Z,99.90
2022-09-24T02:32:03.804Z,99.90
2022-09-24T02:34:36.694Z,99.90
2022-09-24T02:37:14.104Z,99.90
2022-09-24T02:39:41.411Z,99.90
2022-09-24T02:42:09.489Z,99.90
2022-09-24T02:44:36.501Z,99.90
2022-09-24T02:47:03.581Z,99.90
2022-09-24T02:49:30.341Z,99.90
2022-09-24T02:51:57.068Z,99.90
2022-09-24T02:54:25.097Z,99.90
2022-09-24T02:56:52.217Z,99.90
2022-09-24T02:59:19.379Z,99.90
2022-09-24T03:01:46.718Z,99.90
2022-09-24T03:04:13.785Z,99.90
2022-09-24T03:06:40.576Z,99.90
2022-09-24T03:09:07.311Z,99.90
2022-09-24T03:11:35.668Z,99.90
2022-09-24T03:14:02.525Z,99.90
2022-09-24T03:16:29.704Z,99.90
2022-09-24T03:18:56.452Z,99.90
2022-09-24T03:21:23.416Z,99.90
2022-09-24T03:23:50.276Z,99.90
2022-09-24T03:26:19.121Z,99.90
2022-09-24T03:28:45.958Z,99.90
2022-09-24T03:31:12.936Z,99.90
2022-09-24T03:33:41.789Z,99.90
2022-09-24T03:36:10.620Z,99.90
2022-09-24T03:38:38.575Z,99.90
2022-09-24T03:41:05.837Z,99.90
2022-09-24T03:43:33.352Z,99.90
2022-09-24T03:46:00.312Z,99.90
2022-09-24T03:48:27.249Z,99.90
2022-09-24T03:50:54.343Z,99.90
2022-09-24T03:53:21.111Z,99.90
2022-09-24T03:55:49.331Z,99.90
2022-09-24T03:58:16.162Z,99.90
2022-09-24T04:00:42.830Z,99.90
2022-09-24T04:03:09.833Z,99.90
2022-09-24T04:05:36.913Z,99.90
2022-09-24T04:08:05.097Z,99.90
2022-09-24T04:10:31.945Z,99.90
2022-09-24T04:12:58.614Z,99.90
2022-09-24T04:15:25.302Z,99.90
2022-09-24T04:17:56.583Z,99.90
2022-09-24T04:20:24.403Z,99.90
2022-09-24T04:22:51.771Z,99.90
2022-09-24T04:25:18.540Z,99.90
2022-09-24T04:27:45.397Z,99.90
2022-09-24T04:30:13.181Z,99.90
2022-09-24T04:32:42.670Z,99.90
2022-09-24T04:35:09.843Z,99.90
2022-09-24T04:37:36.997Z,99.90
2022-09-24T04:40:05.073Z,99.90
2022-09-24T04:42:31.725Z,99.90
2022-09-24T04:44:58.497Z,99.90
2022-09-24T04:47:25.958Z,99.90
2022-09-24T04:49:52.689Z,99.90
2022-09-24T04:52:19.420Z,99.90
2022-09-24T04:54:46.974Z,99.90
2022-09-24T04:57:14.679Z,99.90
2022-09-24T04:59:41.865Z,99.90
2022-09-24T05:02:09.769Z,99.90
2022-09-24T05:04:37.343Z,99.90
2022-09-24T05:07:04.591Z,99.90
2022-09-24T05:09:34.545Z,99.90
2022-09-24T05:12:01.825Z,99.90
2022-09-24T05:14:28.579Z,99.90
2022-09-24T05:16:55.441Z,99.90
2022-09-24T05:19:22.276Z,99.90
2022-09-24T05:21:49.047Z,99.90
2022-09-24T05:24:15.974Z,99.90
2022-09-24T05:27:01.245Z,99.90
2022-09-24T05:29:27.975Z,99.90
2022-09-24T05:31:54.754Z,99.90
2022-09-24T05:34:21.726Z,99.90
2022-09-24T05:36:48.580Z,99.90
2022-09-24T05:39:15.254Z,99.90
2022-09-24T05:41:43.515Z,99.90
2022-09-24T05:44:11.263Z,99.90
2022-09-24T05:46:38.358Z,99.90
2022-09-24T05:49:05.290Z,99.90
2022-09-24T05:51:32.044Z,99.90
2022-09-24T05:53:58.756Z,99.90
2022-09-24T05:56:25.449Z,99.90
2022-09-24T05:58:52.162Z,99.90
2022-09-24T06:01:18.951Z,99.90
2022-09-24T06:03:45.656Z,99.90
2022-09-24T06:06:12.432Z,99.90
2022-09-24T06:08:39.144Z,99.90
2022-09-24T06:11:06.771Z,99.90
2022-09-24T06:13:35.004Z,99.60
2022-09-24T06:16:06.030Z,99.60
2022-09-24T06:18:37.610Z,99.50
2022-09-24T06:21:05.472Z,99.70
2022-09-24T06:23:32.477Z,99.90
2022-09-24T06:25:59.243Z,99.90
2022-09-24T06:28:25.960Z,99.90
2022-09-24T06:30:53.405Z,99.90
2022-09-24T06:33:20.842Z,99.90
2022-09-24T06:35:48.402Z,99.90
2022-09-24T06:38:16.795Z,99.90
2022-09-24T06:40:45.617Z,99.90
2022-09-24T06:43:13.529Z,99.90
2022-09-24T06:45:42.796Z,99.90
2022-09-24T06:48:10.420Z,99.90
2022-09-24T06:50:39.089Z,99.90
2022-09-24T06:53:06.609Z,99.90
2022-09-24T06:55:34.490Z,99.90
2022-09-24T06:58:27.794Z,99.90
2022-09-24T07:00:58.904Z,99.20
2022-09-24T07:03:26.629Z,99.50
2022-09-24T07:05:53.587Z,99.90
2022-09-24T07:08:20.477Z,99.40
2022-09-24T07:10:49.208Z,99.90
2022-09-24T07:13:16.541Z,99.90
2022-09-24T07:15:44.169Z,99.30
2022-09-24T07:18:11.281Z,99.90
2022-09-24T07:20:38.388Z,98.80
2022-09-24T07:23:05.764Z,99.70
2022-09-24T07:25:32.973Z,99.70
2022-09-24T07:28:07.197Z,99.90
2022-09-24T07:30:34.793Z,99.90
2022-09-24T07:33:01.588Z,99.90
2022-09-24T07:35:28.863Z,99.70
2022-09-24T07:38:02.998Z,99.70
2022-09-24T07:40:30.390Z,99.70
2022-09-24T07:42:57.410Z,99.70
2022-09-24T07:45:25.037Z,99.90
2022-09-24T07:47:58.782Z,99.90
2022-09-24T07:50:26.337Z,99.90
2022-09-24T07:52:53.418Z,99.90
2022-09-24T07:55:20.237Z,99.90
2022-09-24T07:57:47.959Z,99.90
2022-09-24T08:00:15.349Z,99.70
2022-09-24T08:02:42.342Z,99.80
2022-09-24T08:05:09.414Z,99.70
2022-09-24T08:07:36.114Z,99.70
2022-09-24T08:10:03.026Z,99.20
2022-09-24T08:12:29.942Z,99.20
2022-09-24T08:14:56.722Z,99.70
2022-09-24T08:17:23.422Z,99.00
2022-09-24T08:19:52.023Z,99.60
2022-09-24T08:22:18.995Z,99.40
2022-09-24T08:24:45.676Z,99.90
2022-09-24T08:27:17.035Z,99.60
2022-09-24T08:29:44.356Z,99.60
2022-09-24T08:32:11.144Z,99.90
2022-09-24T08:34:40.543Z,99.90
2022-09-24T08:37:07.867Z,99.90
2022-09-24T08:39:35.242Z,99.90
2022-09-24T08:42:22.338Z,99.90
2022-09-24T08:45:07.958Z,99.60
2022-09-24T08:47:43.461Z,99.90
2022-09-24T08:50:16.133Z,99.90
2022-09-24T08:52:42.817Z,99.80
2022-09-24T08:55:15.438Z,99.90
2022-09-24T08:57:48.208Z,99.30
2022-09-24T09:00:15.641Z,99.20
2022-09-24T09:03:01.380Z,99.80
2022-09-24T09:05:37.885Z,98.80
2022-09-24T09:08:12.777Z,98.70
2022-09-24T09:10:49.518Z,98.50
2022-09-24T09:13:19.944Z,98.60
2022-09-24T09:15:50.447Z,98.70
2022-09-24T09:18:21.595Z,98.90
2022-09-24T09:20:49.229Z,98.20
2022-09-24T09:23:18.518Z,98.40
2022-09-24T09:25:51.281Z,98.20
2022-09-24T09:28:18.554Z,98.40
2022-09-24T09:30:59.111Z,98.60
2022-09-24T09:33:49.229Z,98.40
2022-09-24T09:36:15.922Z,98.60
2022-09-24T09:38:48.797Z,98.80
2022-09-24T09:41:23.266Z,98.40
2022-09-24T09:43:49.989Z,98.90
2022-09-24T09:46:17.042Z,99.20
2022-09-24T09:49:05.452Z,99.10
2022-09-24T09:51:37.195Z,99.50
2022-09-24T09:54:04.280Z,99.40
2022-09-24T09:56:34.243Z,99.50
2022-09-24T09:59:25.788Z,99.70
2022-09-24T10:01:56.529Z,99.30
2022-09-24T10:04:35.786Z,99.80
2022-09-24T10:07:04.044Z,99.60
2022-09-24T10:09:30.833Z,99.60
2022-09-24T10:12:06.588Z,99.20
2022-09-24T10:14:33.549Z,99.50
2022-09-24T10:17:05.400Z,99.70
2022-09-24T10:19:36.681Z,99.90
2022-09-24T10:22:19.064Z,99.50
2022-09-24T10:24:45.783Z,99.90
2022-09-24T10:27:14.006Z,99.70
2022-09-24T10:29:59.566Z,99.60
2022-09-24T10:32:27.017Z,99.50
2022-09-24T10:34:56.580Z,99.80
2022-09-24T10:37:23.359Z,99.90
2022-09-24T10:40:08.960Z,99.60
2022-09-24T10:42:37.193Z,99.30
2022-09-24T10:45:04.737Z,99.40
2022-09-24T10:47:57.535Z,99.30
2022-09-24T10:50:27.471Z,98.70
2022-09-24T10:52:57.432Z,98.70
2022-09-24T10:55:27.183Z,98.60
2022-09-24T10:57:58.747Z,97.90
2022-09-24T11:00:32.289Z,97.90
2022-09-24T11:02:59.798Z,98.30
2022-09-24T11:05:31.573Z,98.80
2022-09-24T11:08:01.276Z,98.10
2022-09-24T11:10:46.465Z,98.10
2022-09-24T11:13:16.367Z,98.00
2022-09-24T11:16:06.469Z,98.10
2022-09-24T11:18:33.245Z,98.50
2022-09-24T11:21:18.630Z,98.00
2022-09-24T11:23:45.317Z,97.90
2022-09-24T11:26:24.053Z,98.60
2022-09-24T11:29:09.055Z,97.60
2022-09-24T11:31:46.800Z,97.90
2022-09-24T11:34:39.866Z,97.70
2022-09-24T11:37:17.278Z,97.50
2022-09-24T11:39:46.950Z,98.00
2022-09-24T11:42:34.084Z,97.00
2022-09-24T11:45:07.300Z,97.60
2022-09-24T11:47:54.291Z,96.50
2022-09-24T11:50:27.023Z,97.30
2022-09-24T11:52:59.720Z,96.50
2022-09-24T11:55:39.574Z,96.80
2022-09-24T11:58:15.660Z,96.40
2022-09-24T12:00:51.735Z,96.90
2022-09-24T12:03:35.045Z,97.20
2022-09-24T12:06:10.602Z,97.00
2022-09-24T12:09:06.742Z,97.50
2022-09-24T12:11:41.260Z,97.40
2022-09-24T12:14:23.086Z,97.20
2022-09-24T12:16:53.817Z,97.10
2022-09-24T12:19:24.043Z,97.30
2022-09-24T12:21:51.990Z,98.30
2022-09-24T12:24:39.578Z,98.60
2022-09-24T12:27:14.315Z,98.90
2022-09-24T12:30:09.358Z,98.60
2022-09-24T12:32:54.868Z,99.50
2022-09-24T12:35:24.489Z,98.60
2022-09-24T12:37:53.044Z,99.90
2022-09-24T12:40:19.825Z,99.60
2022-09-24T12:42:49.471Z,98.50
2022-09-24T12:45:17.680Z,98.50
2022-09-24T12:47:50.281Z,97.90
2022-09-24T12:50:25.445Z,97.60
2022-09-24T12:52:52.193Z,98.20
2022-09-24T12:55:23.269Z,97.90
2022-09-24T12:58:06.355Z,98.40
2022-09-24T13:00:41.445Z,99.00
2022-09-24T13:03:27.177Z,98.30
2022-09-24T13:05:55.580Z,98.40
2022-09-24T13:08:25.935Z,98.30
2022-09-24T13:11:00.807Z,98.70
2022-09-24T13:13:28.901Z,99.70
2022-09-24T13:16:01.054Z,98.70
2022-09-24T13:18:27.975Z,98.30
2022-09-24T13:21:05.841Z,98.20
2022-09-24T13:23:35.702Z,97.50
2022-09-24T13:26:04.928Z,98.20
2022-09-24T13:28:52.393Z,98.10
2022-09-24T13:31:23.859Z,98.00
2022-09-24T13:34:14.072Z,98.10
2022-09-24T13:36:41.044Z,98.00
2022-09-24T13:39:10.554Z,98.70
2022-09-24T13:41:40.070Z,98.80
2022-09-24T13:44:27.065Z,99.20
2022-09-24T13:46:57.605Z,99.90
2022-09-24T13:49:25.114Z,98.90
2022-09-24T13:51:57.833Z,99.30
2022-09-24T13:54:26.549Z,99.20
2022-09-24T13:57:02.560Z,99.30
2022-09-24T13:59:31.184Z,99.50
2022-09-24T14:01:58.161Z,99.60
2022-09-24T14:04:24.986Z,99.80
2022-09-24T14:06:53.707Z,99.90
2022-09-24T14:09:23.370Z,99.90
2022-09-24T14:11:50.924Z,99.90
2022-09-24T14:14:18.780Z,99.90
2022-09-24T14:16:45.570Z,99.90
2022-09-24T14:19:13.360Z,99.90
2022-09-24T14:21:44.230Z,99.90
2022-09-24T14:24:31.455Z,99.90
2022-09-24T14:27:09.404Z,99.90
2022-09-24T14:29:48.552Z,99.90
2022-09-24T14:32:29.799Z,99.80
2022-09-24T14:34:58.365Z,99.70
2022-09-24T14:37:27.755Z,99.80
2022-09-24T14:40:02.733Z,99.40
2022-09-24T14:42:32.723Z,99.40
2022-09-24T14:45:00.683Z,99.50
2022-09-24T14:47:31.748Z,99.50
2022-09-24T14:49:58.714Z,99.70
2022-09-24T14:52:33.027Z,99.90
2022-09-24T14:55:02.945Z,99.90
2022-09-24T14:57:35.964Z,99.90
2022-09-24T15:00:03.202Z,99.90
2022-09-24T15:02:33.602Z,99.90
2022-09-24T15:05:06.160Z,99.90
2022-09-24T15:07:34.512Z,99.90
2022-09-24T15:10:02.309Z,99.90
2022-09-24T15:12:33.114Z,99.90
2022-09-24T15:15:01.546Z,99.90
2022-09-24T15:17:37.235Z,99.90
2022-09-24T15:20:04.494Z,99.90
2022-09-24T15:22:31.318Z,99.90
2022-09-24T15:25:01.814Z,99.90
2022-09-24T15:27:32.468Z,99.90
2022-09-24T15:30:00.561Z,99.90
2022-09-24T15:32:28.091Z,99.90
2022-09-24T15:34:55.983Z,99.90
2022-09-24T15:37:24.353Z,99.90
2022-09-24T15:39:52.033Z,99.90
2022-09-24T15:42:19.597Z,99.90
2022-09-24T15:44:47.445Z,99.90
2022-09-24T15:47:14.568Z,99.90
2022-09-24T15:49:41.326Z,99.90
2022-09-24T15:52:24.351Z,99.90
2022-09-24T15:54:52.077Z,99.90
2022-09-24T15:57:18.791Z,99.90
2022-09-24T15:59:45.535Z,99.90
2022-09-24T16:02:20.892Z,99.90
2022-09-24T16:04:47.633Z,99.90
2022-09-24T16:07:14.522Z,99.90
2022-09-24T16:09:41.280Z,99.90
2022-09-24T16:12:08.029Z,99.90
2022-09-24T16:14:34.864Z,99.90
2022-09-24T16:17:01.541Z,99.90
2022-09-24T16:19:29.520Z,99.90
2022-09-24T16:21:56.521Z,99.90
2022-09-24T16:24:23.337Z,99.90
2022-09-24T16:26:50.040Z,99.90
2022-09-24T16:29:18.105Z,99.90
2022-09-24T16:31:45.173Z,99.90
2022-09-24T16:34:11.983Z,99.90
2022-09-24T16:36:38.702Z,99.90
2022-09-24T16:39:05.424Z,99.90
2022-09-24T16:41:34.424Z,99.90
2022-09-24T16:44:01.711Z,99.90
2022-09-24T16:46:28.603Z,99.90
2022-09-24T16:48:55.356Z,99.90
2022-09-24T16:51:22.201Z,99.90
2022-09-24T16:53:54.148Z,99.90
2022-09-24T16:56:21.016Z,99.90
2022-09-24T16:58:47.782Z,99.90
2022-09-24T17:01:16.358Z,99.90
2022-09-24T17:03:43.559Z,99.90
2022-09-24T17:06:17.391Z,99.90
2022-09-24T17:09:02.846Z,99.90
2022-09-24T17:11:29.659Z,99.90
2022-09-24T17:13:57.269Z,99.90
2022-09-24T17:16:25.102Z,99.90
2022-09-24T17:18:54.415Z,99.90
2022-09-24T17:21:21.895Z,99.90
2022-09-24T17:23:49.300Z,99.90
2022-09-24T17:26:17.502Z,99.90
2022-09-24T17:28:45.238Z,99.90
2022-09-24T17:31:13.213Z,99.90
2022-09-24T17:33:43.843Z,99.90
2022-09-24T17:36:12.535Z,99.90
2022-09-24T17:38:39.573Z,99.90
2022-09-24T17:41:07.966Z,99.90
2022-09-24T17:43:35.015Z,99.90
2022-09-24T17:46:03.488Z,99.90
2022-09-24T17:48:35.323Z,99.90
2022-09-24T17:51:05.564Z,99.90
2022-09-24T17:53:33.666Z,99.90
2022-09-24T17:56:00.504Z,99.90
2022-09-24T17:58:27.425Z,99.90
2022-09-24T18:00:54.541Z,99.90
2022-09-24T18:03:21.447Z,99.90
2022-09-24T18:05:48.148Z,99.90
2022-09-24T18:08:15.772Z,99.90
2022-09-24T18:10:42.621Z,99.90
2022-09-24T18:13:10.016Z,99.90
2022-09-24T18:15:37.168Z,99.90
2022-09-24T18:18:04.257Z,99.90
2022-09-24T18:20:31.585Z,99.90
2022-09-24T18:22:58.361Z,99.90
2022-09-24T18:25:27.123Z,99.90
2022-09-24T18:27:54.470Z,99.90
2022-09-24T18:30:21.371Z,99.90
2022-09-24T18:32:48.137Z,99.90
2022-09-24T18:35:15.300Z,99.90
2022-09-24T18:37:42.134Z,99.90
2022-09-24T18:40:10.313Z,99.90
2022-09-24T18:42:37.095Z,99.90
2022-09-24T18:45:04.146Z,99.90
2022-09-24T18:47:30.985Z,99.90
2022-09-24T18:49:57.827Z,99.90
2022-09-24T18:52:24.588Z,99.90
2022-09-24T18:54:51.352Z,99.90
2022-09-24T18:57:18.253Z,99.90
2022-09-24T18:59:45.130Z,99.90
2022-09-24T19:02:13.678Z,99.90
2022-09-24T19:04:40.897Z,99.90
2022-09-24T19:07:08.549Z,99.90
2022-09-24T19:09:35.765Z,99.90
2022-09-24T19:12:08.037Z,99.90
2022-09-24T19:14:35.961Z,99.90
2022-09-24T19:17:04.859Z,99.90
2022-09-24T19:19:31.740Z,99.90
2022-09-24T19:21:59.380Z,99.90
2022-09-24T19:24:26.364Z,99.90
2022-09-24T19:26:53.564Z,99.90
2022-09-24T19:29:20.414Z,99.90
2022-09-24T19:31:48.788Z,99.90
2022-09-24T19:34:15.573Z,99.90
2022-09-24T19:36:44.899Z,99.90
2022-09-24T19:39:13.693Z,99.90
2022-09-24T19:41:40.389Z,99.90
2022-09-24T19:44:13.094Z,99.90
2022-09-24T19:46:40.946Z,99.90
2022-09-24T19:49:07.942Z,99.90
2022-09-24T19:51:35.216Z,99.90
2022-09-24T19:54:02.940Z,99.90
2022-09-24T19:56:30.108Z,99.90
2022-09-24T19:58:57.508Z,99.90
2022-09-24T20:01:29.159Z,99.90
2022-09-24T20:03:57.034Z,99.90
2022-09-24T20:06:25.386Z,99.90
2022-09-24T20:08:52.604Z,99.90
2022-09-24T20:11:20.958Z,99.90
2022-09-24T20:13:48.481Z,99.90
2022-09-24T20:16:16.375Z,99.90
2022-09-24T20:18:43.470Z,99.90
2022-09-24T20:21:12.736Z,99.90
2022-09-24T20:23:41.720Z,99.90
2022-09-24T20:26:28.669Z,99.90
2022-09-24T20:28:55.719Z,99.90
2022-09-24T20:31:22.736Z,99.90
2022-09-24T20:33:49.836Z,99.90
2022-09-24T20:36:20.754Z,99.90
2022-09-24T20:38:50.155Z,99.90
2022-09-24T20:41:18.803Z,99.90
2022-09-24T20:43:45.891Z,99.90
2022-09-24T20:46:16.178Z,99.90
2022-09-24T20:48:43.060Z,99.90
2022-09-24T20:51:13.693Z,99.90
2022-09-24T20:53:40.497Z,99.90
2022-09-24T20:56:07.437Z,99.90
2022-09-24T20:58:34.285Z,99.90
2022-09-24T21:01:01.296Z,99.90
2022-09-24T21:03:43.405Z,99.90
2022-09-24T21:06:11.783Z,99.90
2022-09-24T21:08:39.786Z,99.90
2022-09-24T21:11:07.670Z,99.90
2022-09-24T21:13:35.637Z,99.90
2022-09-24T21:16:06.197Z,99.90
2022-09-24T21:18:39.906Z,99.90
2022-09-24T21:21:08.428Z,99.90
2022-09-24T21:23:38.032Z,99.90
2022-09-24T21:26:09.882Z,99.90
2022-09-24T21:28:37.510Z,99.90
2022-09-24T21:31:05.016Z,99.90
2022-09-24T21:33:32.682Z,99.90
2022-09-24T21:36:00.401Z,99.90
2022-09-24T21:38:27.125Z,99.90
2022-09-24T21:40:54.696Z,99.90
2022-09-24T21:43:28.616Z,99.90
2022-09-24T21:46:02.015Z,99.90
2022-09-24T21:48:29.625Z,99.90
2022-09-24T21:51:06.343Z,99.90
2022-09-24T21:53:33.639Z,99.90
2022-09-24T21:56:00.669Z,99.90
2022-09-24T21:58:29.192Z,99.90
2022-09-24T22:01:05.025Z,99.90
2022-09-24T22:03:32.158Z,99.90
2022-09-24T22:06:03.349Z,99.90
2022-09-24T22:08:31.767Z,99.90
2022-09-24T22:11:04.452Z,99.90
2022-09-24T22:13:31.740Z,99.90
2022-09-24T22:15:59.899Z,99.90
2022-09-24T22:18:27.819Z,99.90
2022-09-24T22:20:55.376Z,99.90
2022-09-24T22:23:22.560Z,99.90
2022-09-24T22:25:56.664Z,99.90
2022-09-24T22:28:24.516Z,99.90
2022-09-24T22:30:55.560Z,99.90
2022-09-24T22:33:41.878Z,99.90
2022-09-24T22:36:08.650Z,99.90
2022-09-24T22:38:35.930Z,99.90
2022-09-24T22:41:03.267Z,99.90
2022-09-24T22:43:30.499Z,99.90
2022-09-24T22:45:58.291Z,99.90
2022-09-24T22:48:25.104Z,99.90
2022-09-24T22:50:51.872Z,99.90
2022-09-24T22:53:18.669Z,99.90
2022-09-24T22:55:48.184Z,99.90
2022-09-24T22:58:18.512Z,99.90
2022-09-24T23:00:45.359Z,99.90
2022-09-24T23:03:12.099Z,99.90
2022-09-24T23:05:39.155Z,99.90
2022-09-24T23:08:05.878Z,99.90
2022-09-24T23:10:32.642Z,99.90
2022-09-24T23:12:59.992Z,99.90
2022-09-24T23:15:27.699Z,99.90
2022-09-24T23:17:55.073Z,99.90
2022-09-24T23:20:22.737Z,99.90
2022-09-24T23:22:49.686Z,99.90
2022-09-24T23:25:17.445Z,99.90
2022-09-24T23:27:44.362Z,99.90
2022-09-24T23:30:11.233Z,99.90
2022-09-24T23:32:37.937Z,99.90
2022-09-24T23:35:04.784Z,99.90
2022-09-24T23:37:31.708Z,99.90
2022-09-24T23:39:58.437Z,99.90
2022-09-24T23:42:25.252Z,99.90
2022-09-24T23:44:52.043Z,99.90
2022-09-24T23:47:18.756Z,99.90
2022-09-24T23:49:45.467Z,99.90
2022-09-24T23:52:12.158Z,99.90
2022-09-24T23:54:40.264Z,99.90
2022-09-24T23:57:07.478Z,99.90
2022-09-24T23:59:34.589Z,99.90
